createdAt,value
2023-07-31T00:01:34.328Z,99186.75
2023-07-31T00:04:01.017Z,99185.25
2023-07-31T00:06:27.621Z,99184.13
2023-07-31T00:08:54.222Z,99190.56
2023-07-31T00:11:20.824Z,99184.56
2023-07-31T00:13:47.402Z,99187.78
2023-07-31T00:16:14.123Z,99186.97
2023-07-31T00:18:40.792Z,99184.97
2023-07-31T00:21:07.384Z,99188.94
2023-07-31T00:23:34.034Z,99194.16
2023-07-31T00:26:01.616Z,99186.97
2023-07-31T00:28:29.997Z,99183.09
2023-07-31T00:30:56.802Z,99184.75
2023-07-31T00:33:23.442Z,99190.44
2023-07-31T00:35:50.339Z,99176.16
2023-07-31T00:38:16.943Z,99182.06
2023-07-31T00:40:43.542Z,99182.81
2023-07-31T00:43:10.389Z,99183.19
2023-07-31T00:45:37.140Z,99180.34
2023-07-31T00:48:04.248Z,99173.94
2023-07-31T00:50:31.210Z,99183.13
2023-07-31T00:52:58.029Z,99181.16
2023-07-31T00:55:24.860Z,99190.78
2023-07-31T00:57:53.836Z,99190.81
2023-07-31T01:00:20.592Z,99189.66
2023-07-31T01:02:47.622Z,99185.28
2023-07-31T01:05:14.421Z,99190.53
2023-07-31T01:07:50.823Z,99190.09
2023-07-31T01:10:24.851Z,99199.38
2023-07-31T01:12:52.575Z,99195.44
2023-07-31T01:15:19.221Z,99195.44
2023-07-31T01:17:46.304Z,99195.09
2023-07-31T01:20:27.999Z,99195.50
2023-07-31T01:23:36.262Z,99192.38
2023-07-31T01:26:20.455Z,99195.63
2023-07-31T01:29:12.317Z,99191.31
2023-07-31T01:31:42.030Z,99184.59
2023-07-31T01:34:11.141Z,99190.59
2023-07-31T01:36:38.308Z,99184.69
2023-07-31T01:39:05.255Z,99189.97
2023-07-31T01:41:31.896Z,99183.25
2023-07-31T01:43:58.558Z,99188.03
2023-07-31T01:46:25.195Z,99189.63
2023-07-31T01:48:52.002Z,99185.69
2023-07-31T01:51:18.564Z,99186.91
2023-07-31T01:53:45.147Z,99188.47
2023-07-31T01:56:11.766Z,99180.03
2023-07-31T01:58:38.466Z,99174.44
2023-07-31T02:01:05.126Z,99176.00
2023-07-31T02:03:31.873Z,99185.88
2023-07-31T02:05:58.513Z,99181.03
2023-07-31T02:08:25.122Z,99186.50
2023-07-31T02:10:52.655Z,99176.50
2023-07-31T02:13:19.221Z,99179.63
2023-07-31T02:15:46.634Z,99176.31
2023-07-31T02:18:13.245Z,99178.63
2023-07-31T02:20:39.852Z,99180.22
2023-07-31T02:23:06.439Z,99177.06
2023-07-31T02:25:33.057Z,99178.22
2023-07-31T02:27:59.690Z,99183.38
2023-07-31T02:30:26.335Z,99179.31
2023-07-31T02:32:52.926Z,99178.09
2023-07-31T02:35:19.804Z,99179.66
2023-07-31T02:37:46.551Z,99186.41
2023-07-31T02:40:13.424Z,99189.59
2023-07-31T02:42:40.154Z,99189.59
2023-07-31T02:45:07.407Z,99189.66
2023-07-31T02:47:34.090Z,99190.53
2023-07-31T02:50:01.155Z,99188.69
2023-07-31T02:52:27.781Z,99200.69
2023-07-31T02:54:54.345Z,99196.03
2023-07-31T02:57:21.004Z,99200.53
2023-07-31T02:59:47.805Z,99209.75
2023-07-31T03:02:15.421Z,99212.63
2023-07-31T03:04:42.042Z,99208.66
2023-07-31T03:07:08.760Z,99212.31
2023-07-31T03:09:35.361Z,99222.69
2023-07-31T03:12:01.988Z,99230.31
2023-07-31T03:14:28.881Z,99226.41
2023-07-31T03:16:55.636Z,99232.84
2023-07-31T03:19:22.377Z,99228.91
2023-07-31T03:21:48.975Z,99226.13
2023-07-31T03:24:15.580Z,99226.56
2023-07-31T03:26:42.687Z,99222.63
2023-07-31T03:29:09.897Z,99232.25
2023-07-31T03:31:36.633Z,99235.47
2023-07-31T03:34:03.258Z,99235.50
2023-07-31T03:36:29.872Z,99234.31
2023-07-31T03:38:56.438Z,99242.25
2023-07-31T03:41:23.181Z,99235.13
2023-07-31T03:43:54.656Z,99229.97
2023-07-31T03:46:21.301Z,99241.91
2023-07-31T03:48:48.037Z,99242.72
2023-07-31T03:51:14.656Z,99230.78
2023-07-31T03:53:41.289Z,99230.41
2023-07-31T03:56:07.887Z,99227.56
2023-07-31T03:58:34.566Z,99238.69
2023-07-31T04:01:01.169Z,99243.03
2023-07-31T04:03:27.866Z,99254.97
2023-07-31T04:05:57.037Z,99246.19
2023-07-31T04:08:24.472Z,99242.97
2023-07-31T04:10:51.683Z,99245.72
2023-07-31T04:13:18.261Z,99244.94
2023-07-31T04:15:50.219Z,99248.94
2023-07-31T04:18:16.968Z,99252.97
2023-07-31T04:20:43.581Z,99245.88
2023-07-31T04:23:10.184Z,99247.09
2023-07-31T04:25:36.797Z,99241.50
2023-07-31T04:28:03.429Z,99236.22
2023-07-31T04:30:30.019Z,99248.50
2023-07-31T04:32:56.666Z,99241.22
2023-07-31T04:35:23.352Z,99243.34
2023-07-31T04:37:50.245Z,99233.56
2023-07-31T04:40:19.791Z,99234.56
2023-07-31T04:42:47.563Z,99233.28
2023-07-31T04:45:15.253Z,99242.34
2023-07-31T04:47:41.966Z,99253.28
2023-07-31T04:50:09.021Z,99253.91
2023-07-31T04:52:35.716Z,99241.03
2023-07-31T04:55:02.481Z,99249.63
2023-07-31T04:57:29.090Z,99259.03
2023-07-31T04:59:55.702Z,99264.88
2023-07-31T05:02:22.376Z,99263.09
2023-07-31T05:04:49.224Z,99258.38
2023-07-31T05:07:16.031Z,99264.50
2023-07-31T05:09:42.650Z,99271.44
2023-07-31T05:12:09.477Z,99263.91
2023-07-31T05:14:36.105Z,99268.22
2023-07-31T05:17:02.692Z,99274.91
2023-07-31T05:19:29.291Z,99275.63
2023-07-31T05:21:55.858Z,99278.50
2023-07-31T05:24:22.488Z,99278.50
2023-07-31T05:26:49.111Z,99273.94
2023-07-31T05:29:15.820Z,99261.97
2023-07-31T05:31:42.479Z,99275.00
2023-07-31T05:34:09.120Z,99268.09
2023-07-31T05:36:36.638Z,99274.97
2023-07-31T05:39:07.881Z,99280.28
2023-07-31T05:41:34.506Z,99284.22
2023-07-31T05:44:01.224Z,99277.34
2023-07-31T05:46:27.840Z,99280.75
2023-07-31T05:48:54.636Z,99274.94
2023-07-31T05:51:21.219Z,99262.72
2023-07-31T05:53:47.839Z,99283.97
2023-07-31T05:56:14.481Z,99283.91
2023-07-31T05:58:41.095Z,99294.94
2023-07-31T06:01:07.969Z,99292.31
2023-07-31T06:03:34.788Z,99295.47
2023-07-31T06:06:01.450Z,99280.38
2023-07-31T06:08:28.059Z,99292.84
2023-07-31T06:10:54.781Z,99295.44
2023-07-31T06:13:21.381Z,99287.91
2023-07-31T06:15:48.014Z,99301.31
2023-07-31T06:18:14.721Z,99282.00
2023-07-31T06:20:41.771Z,99282.38
2023-07-31T06:23:08.393Z,99299.06
2023-07-31T06:25:35.014Z,99283.31
2023-07-31T06:28:01.676Z,99278.41
2023-07-31T06:30:28.329Z,99278.22
2023-07-31T06:32:56.028Z,99296.31
2023-07-31T06:35:22.650Z,99286.00
2023-07-31T06:37:49.304Z,99285.22
2023-07-31T06:40:15.993Z,99280.56
2023-07-31T06:42:42.725Z,99285.28
2023-07-31T06:45:09.770Z,99273.03
2023-07-31T06:47:36.417Z,99271.16
2023-07-31T06:50:03.145Z,99276.34
2023-07-31T06:52:29.741Z,99283.22
2023-07-31T06:55:05.262Z,99275.06
2023-07-31T06:57:32.037Z,99281.53
2023-07-31T06:59:58.702Z,99278.81
2023-07-31T07:02:25.337Z,99287.03
2023-07-31T07:04:52.316Z,99279.16
2023-07-31T07:07:19.004Z,99276.56
2023-07-31T07:09:45.662Z,99271.91
2023-07-31T07:12:12.263Z,99271.56
2023-07-31T07:14:38.840Z,99279.81
2023-07-31T07:17:05.868Z,99273.19
2023-07-31T07:19:32.484Z,99272.19
2023-07-31T07:22:00.965Z,99266.34
2023-07-31T07:24:27.596Z,99273.19
2023-07-31T07:26:54.216Z,99273.75
2023-07-31T07:29:20.913Z,99263.97
2023-07-31T07:31:47.639Z,99263.88
2023-07-31T07:34:14.474Z,99259.59
2023-07-31T07:36:41.337Z,99251.75
2023-07-31T07:39:09.726Z,99264.88
2023-07-31T07:41:36.368Z,99262.06
2023-07-31T07:44:03.137Z,99262.28
2023-07-31T07:46:29.766Z,99250.63
2023-07-31T07:48:56.390Z,99260.94
2023-07-31T07:51:23.004Z,99245.16
2023-07-31T07:53:49.580Z,99242.00
2023-07-31T07:56:16.212Z,99254.44
2023-07-31T07:58:42.818Z,99244.47
2023-07-31T08:01:09.550Z,99238.78
2023-07-31T08:03:36.220Z,99251.03
2023-07-31T08:06:03.055Z,99259.13
2023-07-31T08:08:30.152Z,99250.03
2023-07-31T08:10:56.736Z,99247.28
2023-07-31T08:13:23.364Z,99244.09
2023-07-31T08:15:50.033Z,99253.19
2023-07-31T08:18:18.526Z,99243.09
2023-07-31T08:20:45.431Z,99252.06
2023-07-31T08:23:12.141Z,99235.88
2023-07-31T08:25:39.672Z,99258.16
2023-07-31T08:28:07.402Z,99258.22
2023-07-31T08:30:37.592Z,99238.50
2023-07-31T08:33:04.243Z,99261.16
2023-07-31T08:35:30.893Z,99249.81
2023-07-31T08:37:57.754Z,99242.63
2023-07-31T08:40:24.423Z,99242.59
2023-07-31T08:42:54.849Z,99241.78
2023-07-31T08:45:21.619Z,99246.81
2023-07-31T08:47:50.612Z,99246.31
2023-07-31T08:50:20.477Z,99234.81
2023-07-31T08:52:48.289Z,99238.03
2023-07-31T08:55:15.275Z,99244.38
2023-07-31T08:57:43.242Z,99237.44
2023-07-31T09:00:11.717Z,99240.81
2023-07-31T09:02:53.020Z,99229.94
2023-07-31T09:05:22.577Z,99241.66
2023-07-31T09:07:52.407Z,99236.34
2023-07-31T09:10:19.153Z,99220.69
2023-07-31T09:12:46.973Z,99225.66
2023-07-31T09:15:23.899Z,99232.44
2023-07-31T09:18:02.333Z,99216.97
2023-07-31T09:20:29.411Z,99218.00
2023-07-31T09:22:57.163Z,99227.13
2023-07-31T09:25:27.355Z,99215.59
2023-07-31T09:28:20.248Z,99229.69
2023-07-31T09:30:49.449Z,99223.47
2023-07-31T09:33:16.474Z,99216.63
2023-07-31T09:35:43.215Z,99227.44
2023-07-31T09:38:12.008Z,99213.69
2023-07-31T09:40:43.517Z,99205.75
2023-07-31T09:43:15.097Z,99199.47
2023-07-31T09:45:43.581Z,99203.75
2023-07-31T09:48:12.222Z,99205.66
2023-07-31T09:50:40.901Z,99210.03
2023-07-31T09:53:08.740Z,99198.03
2023-07-31T09:55:36.292Z,99205.53
2023-07-31T09:58:07.780Z,99207.09
2023-07-31T10:00:35.198Z,99205.50
2023-07-31T10:03:05.186Z,99196.28
2023-07-31T10:05:46.682Z,99190.06
2023-07-31T10:08:16.208Z,99184.09
2023-07-31T10:10:45.437Z,99182.38
2023-07-31T10:13:13.079Z,99173.59
2023-07-31T10:15:40.042Z,99174.06
2023-07-31T10:18:07.931Z,99169.75
2023-07-31T10:20:35.879Z,99173.19
2023-07-31T10:23:03.436Z,99158.78
2023-07-31T10:25:31.419Z,99159.06
2023-07-31T10:27:59.123Z,99149.50
2023-07-31T10:30:34.918Z,99151.34
2023-07-31T10:33:02.162Z,99152.28
2023-07-31T10:35:29.146Z,99142.59
2023-07-31T10:37:55.784Z,99140.16
2023-07-31T10:40:27.556Z,99138.97
2023-07-31T10:42:56.673Z,99130.25
2023-07-31T10:45:34.558Z,99134.00
2023-07-31T10:48:03.184Z,99139.44
2023-07-31T10:50:33.846Z,99138.16
2023-07-31T10:53:04.889Z,99128.16
2023-07-31T10:55:41.960Z,99112.78
2023-07-31T10:58:13.204Z,99122.16
2023-07-31T11:00:41.935Z,99107.28
2023-07-31T11:03:16.731Z,99101.84
2023-07-31T11:05:47.882Z,99098.41
2023-07-31T11:08:35.799Z,99097.84
2023-07-31T11:11:02.328Z,99094.50
2023-07-31T11:13:33.183Z,99085.81
2023-07-31T11:16:00.185Z,99080.91
2023-07-31T11:18:29.690Z,99080.56
2023-07-31T11:20:56.305Z,99078.75
2023-07-31T11:23:24.081Z,99080.91
2023-07-31T11:25:51.837Z,99072.53
2023-07-31T11:28:20.168Z,99073.22
2023-07-31T11:30:47.938Z,99064.06
2023-07-31T11:33:15.403Z,99063.69
2023-07-31T11:35:46.808Z,99052.44
2023-07-31T11:38:23.899Z,99059.19
2023-07-31T11:40:50.844Z,99057.25
2023-07-31T11:43:18.980Z,99053.75
2023-07-31T11:46:08.174Z,99050.63
2023-07-31T11:48:37.516Z,99041.72
2023-07-31T11:51:10.528Z,99047.25
2023-07-31T11:53:39.405Z,99029.09
2023-07-31T11:56:08.745Z,99038.09
2023-07-31T11:58:36.731Z,99038.53
2023-07-31T12:01:03.873Z,99034.69
2023-07-31T12:03:31.145Z,99021.94
2023-07-31T12:05:57.850Z,99033.38
2023-07-31T12:08:25.275Z,99021.75
2023-07-31T12:10:53.230Z,99020.16
2023-07-31T12:13:24.789Z,99015.44
2023-07-31T12:15:57.590Z,99006.47
2023-07-31T12:18:25.222Z,99013.44
2023-07-31T12:21:00.223Z,99002.59
2023-07-31T12:23:32.375Z,98991.84
2023-07-31T12:26:07.145Z,98998.19
2023-07-31T12:28:39.369Z,98993.59
2023-07-31T12:31:06.787Z,98981.69
2023-07-31T12:33:35.186Z,98979.66
2023-07-31T12:36:04.035Z,98981.34
2023-07-31T12:38:31.796Z,98979.47
2023-07-31T12:40:58.481Z,98968.63
2023-07-31T12:43:25.317Z,98971.03
2023-07-31T12:45:52.283Z,98959.34
2023-07-31T12:48:18.987Z,98958.47
2023-07-31T12:50:45.646Z,98957.50
2023-07-31T12:53:12.228Z,98958.16
2023-07-31T12:55:38.948Z,98946.78
2023-07-31T12:58:05.581Z,98947.75
2023-07-31T13:03:07.621Z,98936.13
2023-07-31T13:05:34.307Z,98932.41
2023-07-31T13:08:00.891Z,98936.84
2023-07-31T13:10:29.787Z,98937.88
2023-07-31T13:12:56.711Z,98939.09
2023-07-31T13:15:23.675Z,98942.00
2023-07-31T13:17:50.469Z,98937.72
2023-07-31T13:20:17.149Z,98934.34
2023-07-31T13:22:46.632Z,98939.47
2023-07-31T13:25:13.874Z,98932.56
2023-07-31T13:27:40.500Z,98928.59
2023-07-31T13:30:07.985Z,98929.75
2023-07-31T13:32:34.648Z,98927.53
2023-07-31T13:35:01.373Z,98920.56
2023-07-31T13:37:28.021Z,98924.59
2023-07-31T13:39:54.636Z,98932.94
2023-07-31T13:42:21.257Z,98928.38
2023-07-31T13:44:47.899Z,98924.38
2023-07-31T13:47:14.589Z,98918.78
2023-07-31T13:49:42.825Z,98923.53
2023-07-31T13:52:09.449Z,98926.38
2023-07-31T13:54:36.180Z,98921.06
2023-07-31T13:57:03.358Z,98921.47
2023-07-31T13:59:30.055Z,98918.56
2023-07-31T14:01:56.737Z,98931.81
2023-07-31T14:04:23.552Z,98924.44
2023-07-31T14:06:51.601Z,98927.06
2023-07-31T14:09:18.945Z,98927.41
2023-07-31T14:11:45.597Z,98921.56
2023-07-31T14:14:12.181Z,98916.13
2023-07-31T14:16:39.112Z,98919.72
2023-07-31T14:19:06.242Z,98917.66
2023-07-31T14:21:32.927Z,98912.38
2023-07-31T14:23:59.612Z,98915.53
2023-07-31T14:26:26.283Z,98910.00
2023-07-31T14:28:52.895Z,98895.53
2023-07-31T14:31:19.579Z,98896.97
2023-07-31T14:33:46.401Z,98901.03
2023-07-31T14:38:59.660Z,98897.47
2023-07-31T14:41:26.566Z,98904.25
2023-07-31T14:43:53.297Z,98897.75
2023-07-31T14:46:19.931Z,98901.44
2023-07-31T14:48:46.609Z,98897.97
2023-07-31T14:51:13.404Z,98902.09
2023-07-31T14:53:40.005Z,98892.94
2023-07-31T14:56:07.032Z,98893.56
2023-07-31T14:58:33.630Z,98888.19
2023-07-31T15:01:00.338Z,98878.81
2023-07-31T15:03:27.655Z,98878.69
2023-07-31T15:05:54.377Z,98876.88
2023-07-31T15:08:20.970Z,98878.75
2023-07-31T15:10:47.628Z,98874.16
2023-07-31T15:13:14.302Z,98875.66
2023-07-31T15:15:40.898Z,98878.63
2023-07-31T15:18:07.560Z,98869.34
2023-07-31T15:20:35.304Z,98879.38
2023-07-31T15:23:02.157Z,98866.63
2023-07-31T15:25:28.738Z,98862.78
2023-07-31T15:27:55.530Z,98861.06
2023-07-31T15:30:22.247Z,98849.34
2023-07-31T15:32:51.286Z,98854.03
2023-07-31T15:35:19.487Z,98844.50
2023-07-31T15:40:36.431Z,98845.88
2023-07-31T15:43:03.911Z,98845.88
2023-07-31T15:45:31.420Z,98844.53
2023-07-31T15:47:58.099Z,98845.03
2023-07-31T15:50:24.693Z,98843.75
2023-07-31T15:52:51.325Z,98837.50
2023-07-31T15:55:18.975Z,98839.81
2023-07-31T15:57:45.559Z,98832.25
2023-07-31T16:00:12.690Z,98830.03
2023-07-31T16:02:39.628Z,98834.69
2023-07-31T16:05:06.449Z,98841.09
2023-07-31T16:07:33.036Z,98837.28
2023-07-31T16:09:59.630Z,98839.88
2023-07-31T16:12:26.458Z,98835.38
2023-07-31T16:14:53.081Z,98827.31
2023-07-31T16:17:19.843Z,98830.69
2023-07-31T16:19:46.461Z,98822.91
2023-07-31T16:22:13.057Z,98829.75
2023-07-31T16:24:39.680Z,98817.00
2023-07-31T16:27:06.567Z,98820.84
2023-07-31T16:29:33.212Z,98813.31
2023-07-31T16:31:59.908Z,98813.88
2023-07-31T16:34:27.876Z,98814.22
2023-07-31T16:36:57.864Z,98804.97
2023-07-31T16:39:24.811Z,98804.50
2023-07-31T16:41:51.820Z,98819.06
2023-07-31T16:44:18.474Z,98810.75
2023-07-31T16:46:45.120Z,98803.63
2023-07-31T16:49:12.157Z,98798.63
2023-07-31T16:51:39.206Z,98794.06
2023-07-31T16:54:06.171Z,98791.97
2023-07-31T16:56:39.125Z,98793.25
2023-07-31T16:59:20.022Z,98798.00
2023-07-31T17:01:47.125Z,98800.94
2023-07-31T17:04:14.386Z,98799.06
2023-07-31T17:06:41.512Z,98795.38
2023-07-31T17:09:08.308Z,98799.38
2023-07-31T17:11:35.176Z,98800.38
2023-07-31T17:14:04.486Z,98796.09
2023-07-31T17:16:32.704Z,98790.00
2023-07-31T17:18:59.317Z,98785.03
2023-07-31T17:21:27.293Z,98786.28
2023-07-31T17:23:54.720Z,98795.38
2023-07-31T17:26:21.429Z,98791.03
2023-07-31T17:28:48.034Z,98791.59
2023-07-31T17:31:14.761Z,98788.72
2023-07-31T17:33:41.799Z,98784.78
2023-07-31T17:36:08.535Z,98781.38
2023-07-31T17:38:35.155Z,98782.00
2023-07-31T17:41:01.810Z,98785.13
2023-07-31T17:43:28.429Z,98789.41
2023-07-31T17:45:55.054Z,98782.69
2023-07-31T17:48:21.675Z,98789.72
2023-07-31T17:50:52.962Z,98782.88
2023-07-31T17:53:21.003Z,98777.03
2023-07-31T17:55:48.378Z,98787.31
2023-07-31T17:58:15.110Z,98787.78
2023-07-31T18:00:42.562Z,98782.34
2023-07-31T18:03:09.971Z,98793.16
2023-07-31T18:05:40.236Z,98783.09
2023-07-31T18:08:07.368Z,98781.22
2023-07-31T18:10:35.119Z,98775.72
2023-07-31T18:13:02.443Z,98781.59
2023-07-31T18:15:29.152Z,98775.44
2023-07-31T18:17:55.843Z,98767.41
2023-07-31T18:20:22.702Z,98773.94
2023-07-31T18:22:49.342Z,98774.97
2023-07-31T18:25:16.018Z,98772.84
2023-07-31T18:27:42.688Z,98769.78
2023-07-31T18:30:09.765Z,98768.91
2023-07-31T18:32:36.432Z,98764.59
2023-07-31T18:35:03.170Z,98768.94
2023-07-31T18:37:29.829Z,98760.44
2023-07-31T18:39:56.448Z,98770.34
2023-07-31T18:42:23.129Z,98765.66
2023-07-31T18:44:49.787Z,98761.22
2023-07-31T18:47:16.418Z,98763.00
2023-07-31T18:49:43.276Z,98763.25
2023-07-31T18:52:09.871Z,98761.00
2023-07-31T18:54:36.510Z,98759.09
2023-07-31T18:57:03.519Z,98768.88
2023-07-31T18:59:30.360Z,98767.44
2023-07-31T19:01:58.287Z,98769.81
2023-07-31T19:04:24.913Z,98764.00
2023-07-31T19:06:51.586Z,98763.66
2023-07-31T19:09:33.226Z,98763.78
2023-07-31T19:12:00.562Z,98772.53
2023-07-31T19:14:27.297Z,98761.97
2023-07-31T19:16:55.694Z,98757.38
2023-07-31T19:19:22.640Z,98768.84
2023-07-31T19:21:49.358Z,98767.38
2023-07-31T19:24:16.040Z,98765.03
2023-07-31T19:26:42.908Z,98761.00
2023-07-31T19:29:11.532Z,98761.25
2023-07-31T19:31:38.413Z,98752.16
2023-07-31T19:34:05.134Z,98752.47
2023-07-31T19:36:31.744Z,98752.28
2023-07-31T19:38:58.402Z,98753.97
2023-07-31T19:41:25.013Z,98740.50
2023-07-31T19:43:51.676Z,98748.75
2023-07-31T19:46:18.365Z,98751.78
2023-07-31T19:48:45.075Z,98749.88
2023-07-31T19:51:11.722Z,98749.53
2023-07-31T19:53:39.454Z,98749.44
2023-07-31T19:56:09.258Z,98741.47
2023-07-31T19:58:35.875Z,98740.47
2023-07-31T20:01:02.612Z,98738.13
2023-07-31T20:03:29.185Z,98737.31
2023-07-31T20:05:55.862Z,98732.63
2023-07-31T20:08:22.737Z,98731.25
2023-07-31T20:10:49.355Z,98733.47
2023-07-31T20:13:15.990Z,98735.06
2023-07-31T20:15:42.636Z,98722.41
2023-07-31T20:18:09.317Z,98726.63
2023-07-31T20:20:35.988Z,98724.97
2023-07-31T20:23:05.157Z,98724.97
2023-07-31T20:25:34.203Z,98719.56
2023-07-31T20:28:00.994Z,98713.25
2023-07-31T20:30:27.654Z,98714.94
2023-07-31T20:32:54.329Z,98712.88
2023-07-31T20:35:21.177Z,98718.56
2023-07-31T20:37:47.797Z,98722.28
2023-07-31T20:40:14.707Z,98719.16
2023-07-31T20:42:41.355Z,98712.09
2023-07-31T20:45:08.719Z,98712.97
2023-07-31T20:47:35.435Z,98714.66
2023-07-31T20:50:02.068Z,98706.94
2023-07-31T20:52:28.795Z,98710.44
2023-07-31T20:54:55.382Z,98710.44
2023-07-31T20:57:21.985Z,98700.03
2023-07-31T20:59:48.570Z,98712.44
2023-07-31T21:02:15.239Z,98706.25
2023-07-31T21:04:41.894Z,98702.53
2023-07-31T21:07:11.368Z,98709.47
2023-07-31T21:09:37.996Z,98705.63
2023-07-31T21:12:04.955Z,98692.53
2023-07-31T21:14:31.622Z,98685.03
2023-07-31T21:16:58.220Z,98687.84
2023-07-31T21:19:24.869Z,98688.31
2023-07-31T21:21:51.494Z,98680.59
2023-07-31T21:24:18.076Z,98685.97
2023-07-31T21:26:44.915Z,98700.16
2023-07-31T21:29:11.567Z,98697.34
2023-07-31T21:31:38.178Z,98700.56
2023-07-31T21:34:04.872Z,98698.44
2023-07-31T21:36:31.480Z,98703.88
2023-07-31T21:38:58.701Z,98692.81
2023-07-31T21:41:25.437Z,98692.97
2023-07-31T21:43:52.565Z,98692.75
2023-07-31T21:46:19.542Z,98676.59
2023-07-31T21:48:46.157Z,98677.66
2023-07-31T21:51:12.813Z,98668.28
2023-07-31T21:53:39.399Z,98678.72
2023-07-31T21:56:06.114Z,98667.38
2023-07-31T21:58:33.209Z,98667.13
2023-07-31T22:00:59.874Z,98666.34
2023-07-31T22:03:26.560Z,98670.38
2023-07-31T22:05:53.241Z,98668.00
2023-07-31T22:08:20.020Z,98664.78
2023-07-31T22:10:46.655Z,98655.63
2023-07-31T22:13:13.320Z,98652.81
2023-07-31T22:15:39.932Z,98656.81
2023-07-31T22:18:06.572Z,98664.66
2023-07-31T22:20:33.193Z,98649.34
2023-07-31T22:22:59.849Z,98637.06
2023-07-31T22:25:26.406Z,98645.97
2023-07-31T22:27:53.580Z,98650.22
2023-07-31T22:30:21.022Z,98658.06
2023-07-31T22:32:47.672Z,98649.69
2023-07-31T22:35:14.388Z,98631.47
2023-07-31T22:37:40.995Z,98635.47
2023-07-31T22:40:08.785Z,98641.84
2023-07-31T22:42:35.605Z,98629.69
2023-07-31T22:45:02.275Z,98628.69
2023-07-31T22:47:28.905Z,98621.38
2023-07-31T22:49:55.541Z,98617.34
2023-07-31T22:52:22.160Z,98622.22
2023-07-31T22:54:48.782Z,98623.56
2023-07-31T22:57:15.450Z,98616.91
2023-07-31T22:59:42.073Z,98613.00
2023-07-31T23:02:10.536Z,98609.84
2023-07-31T23:04:38.801Z,98613.44
2023-07-31T23:07:06.790Z,98614.19
2023-07-31T23:09:33.452Z,98608.28
2023-07-31T23:12:01.203Z,98604.28
2023-07-31T23:14:27.850Z,98605.94
2023-07-31T23:16:54.436Z,98605.50
2023-07-31T23:19:21.831Z,98605.50
2023-07-31T23:21:48.650Z,98598.69
2023-07-31T23:24:15.300Z,98589.47
2023-07-31T23:26:42.045Z,98585.88
2023-07-31T23:29:08.739Z,98584.09
2023-07-31T23:31:35.466Z,98584.56
2023-07-31T23:34:02.230Z,98578.19
2023-07-31T23:36:28.813Z,98573.75
2023-07-31T23:38:55.743Z,98569.03
2023-07-31T23:41:22.518Z,98573.47
2023-07-31T23:43:49.110Z,98585.44
2023-07-31T23:46:15.767Z,98580.28
2023-07-31T23:48:42.362Z,98568.00
2023-07-31T23:51:09.553Z,98569.22
2023-07-31T23:53:36.326Z,98569.41
2023-07-31T23:56:03.840Z,98566.78
2023-07-31T23:58:32.411Z,98580.94
